Time;durP1;ratioP1;P1;durP2;ratioP2;P2;SDS_P1;SDS_P2;PMS_P1;PMS_P2;Temp;Humidity;BMP_temperature;BMP_pressure;BME280_temperature;BME280_humidity;BME280_pressure;Samples;Min_cycle;Max_cycle;Signal;HPM_P1;HPM_P2
2021/12/06 00:02:24;;;;;;;2.05;0.95;;;;;;;;;;5077367;28;20029;-79
2021/12/06 00:05:12;;;;;;;1.60;0.70;;;;;;;;;;5087363;28;20036;-78
2021/12/06 00:07:59;;;;;;;1.30;0.70;;;;;;;;;;5089505;28;20048;-78
2021/12/06 00:10:50;;;;;;;1.20;0.60;;;;;;;;;;5080362;28;20463;-78
2021/12/06 00:13:37;;;;;;;1.30;0.88;;;;;;;;;;5078696;28;20396;-78
2021/12/06 00:16:24;;;;;;;1.67;0.77;;;;;;;;;;5077334;28;20036;-77
2021/12/06 00:19:11;;;;;;;3.33;0.55;;;;;;;;;;5084672;28;20517;-77
2021/12/06 00:21:59;;;;;;;1.80;0.82;;;;;;;;;;5088252;28;20038;-77
2021/12/06 00:24:46;;;;;;;3.35;0.77;;;;;;;;;;5089972;28;20039;-77
2021/12/06 00:27:32;;;;;;;1.35;0.70;;;;;;;;;;5072616;28;20043;-78
2021/12/06 00:30:19;;;;;;;2.13;0.70;;;;;;;;;;5089564;28;20032;-78
2021/12/06 00:33:06;;;;;;;1.73;0.80;;;;;;;;;;5088433;28;20042;-78
2021/12/06 00:35:56;;;;;;;1.40;0.47;;;;;;;;;;5089374;28;20031;-77
2021/12/06 00:38:45;;;;;;;1.27;0.50;;;;;;;;;;5090039;28;20510;-78
2021/12/06 00:41:31;;;;;;;1.17;0.75;;;;;;;;;;5086928;28;20491;-78
2021/12/06 00:44:18;;;;;;;0.90;0.57;;;;;;;;;;5078793;28;20028;-78
2021/12/06 00:47:05;;;;;;;1.58;0.77;;;;;;;;;;5088753;28;20031;-77
2021/12/06 00:49:52;;;;;;;0.88;0.60;;;;;;;;;;5085806;28;20031;-78
2021/12/06 00:52:39;;;;;;;0.50;0.40;;;;;;;;;;5072184;28;20043;-77
2021/12/06 00:55:26;;;;;;;0.95;0.60;;;;;;;;;;5083252;28;20039;-77
2021/12/06 00:58:12;;;;;;;1.35;0.60;;;;;;;;;;5089758;28;20039;-78
2021/12/06 01:00:59;;;;;;;0.77;0.55;;;;;;;;;;5069201;28;20062;-78
2021/12/06 01:03:46;;;;;;;1.67;0.60;;;;;;;;;;5078079;28;20046;-78
2021/12/06 01:06:33;;;;;;;1.33;0.63;;;;;;;;;;5073721;28;20016;-78
2021/12/06 01:09:20;;;;;;;0.80;0.50;;;;;;;;;;5084318;28;20036;-78
2021/12/06 01:12:08;;;;;;;0.80;0.60;;;;;;;;;;5084730;28;20048;-78
2021/12/06 01:14:54;;;;;;;0.65;0.50;;;;;;;;;;5093432;28;20043;-78
2021/12/06 01:17:41;;;;;;;1.15;0.60;;;;;;;;;;5096083;28;20123;-78
2021/12/06 01:20:30;;;;;;;0.88;0.60;;;;;;;;;;5097985;28;20046;-78
2021/12/06 01:23:20;;;;;;;1.33;0.70;;;;;;;;;;5072768;28;20032;-79
2021/12/06 01:29:13;;;;;;;1.05;0.60;;;;;;;;;;5078772;28;20040;-78
2021/12/06 01:40:46;;;;;;;0.50;0.40;;;;;;;;;;5075950;28;20063;-78
2021/12/06 01:43:33;;;;;;;1.20;0.60;;;;;;;;;;5083483;28;20040;-78
2021/12/06 01:46:19;;;;;;;1.05;0.50;;;;;;;;;;5063834;28;20122;-78
2021/12/06 01:49:07;;;;;;;1.25;0.70;;;;;;;;;;5080835;28;20035;-77
2021/12/06 01:51:54;;;;;;;1.55;0.60;;;;;;;;;;5070919;28;20036;-77
2021/12/06 01:54:41;;;;;;;0.60;0.40;;;;;;;;;;5066546;28;20499;-77
2021/12/06 01:57:29;;;;;;;1.55;0.73;;;;;;;;;;5084065;28;20050;-78
2021/12/06 02:00:18;;;;;;;0.82;0.65;;;;;;;;;;5074530;28;20636;-77
2021/12/06 02:03:05;;;;;;;1.58;0.70;;;;;;;;;;5068446;28;20017;-78
2021/12/06 02:05:52;;;;;;;2.08;0.90;;;;;;;;;;5078288;28;20058;-79
2021/12/06 02:08:38;;;;;;;0.90;0.50;;;;;;;;;;5076928;28;20040;-77
2021/12/06 02:11:27;;;;;;;1.00;0.60;;;;;;;;;;5070674;28;20396;-78
2021/12/06 02:17:14;;;;;;;0.70;0.50;;;;;;;;;;5084966;28;20137;-78
2021/12/06 02:20:14;;;;;;;1.55;0.60;;;;;;;;;;5070472;28;20054;-77
2021/12/06 02:23:01;;;;;;;1.17;0.50;;;;;;;;;;5090240;28;20498;-77
2021/12/06 02:25:48;;;;;;;1.15;0.60;;;;;;;;;;5074069;28;20038;-77
2021/12/06 02:28:34;;;;;;;2.05;0.70;;;;;;;;;;5090792;28;20024;-77
2021/12/06 02:31:22;;;;;;;1.15;0.60;;;;;;;;;;5082820;28;20445;-77
2021/12/06 02:34:08;;;;;;;0.70;0.50;;;;;;;;;;5093440;28;20038;-77
2021/12/06 02:36:55;;;;;;;1.05;0.68;;;;;;;;;;5091688;28;20044;-76
2021/12/06 02:39:42;;;;;;;1.02;0.47;;;;;;;;;;5093395;28;20047;-77
2021/12/06 02:42:29;;;;;;;1.48;0.70;;;;;;;;;;5084129;28;20034;-77
2021/12/06 02:45:21;;;;;;;1.17;0.70;;;;;;;;;;5092248;28;20055;-77
2021/12/06 02:48:08;;;;;;;1.00;0.63;;;;;;;;;;5092607;28;20024;-77
2021/12/06 02:50:56;;;;;;;0.70;0.50;;;;;;;;;;5092360;28;20031;-78
2021/12/06 02:53:43;;;;;;;0.77;0.50;;;;;;;;;;5091750;28;20032;-77
2021/12/06 02:56:39;;;;;;;4.45;0.70;;;;;;;;;;5091873;28;20375;-77
2021/12/06 02:59:26;;;;;;;0.73;0.50;;;;;;;;;;5087890;28;20047;-78
2021/12/06 03:02:16;;;;;;;0.90;0.60;;;;;;;;;;5093813;28;20024;-77
2021/12/06 03:05:04;;;;;;;0.80;0.50;;;;;;;;;;5088473;28;20046;-78
2021/12/06 03:07:57;;;;;;;0.93;0.60;;;;;;;;;;5086676;28;20032;-78
2021/12/06 03:10:44;;;;;;;0.57;0.57;;;;;;;;;;5067681;28;20038;-78
2021/12/06 03:13:30;;;;;;;1.17;0.68;;;;;;;;;;5068509;28;20036;-78
2021/12/06 03:16:25;;;;;;;1.05;0.57;;;;;;;;;;5090278;28;20039;-79
2021/12/06 03:19:12;;;;;;;0.50;0.40;;;;;;;;;;5089947;28;20044;-77
2021/12/06 03:21:59;;;;;;;0.70;0.40;;;;;;;;;;5081249;28;20039;-77
2021/12/06 03:24:46;;;;;;;1.17;0.68;;;;;;;;;;5088156;28;20150;-78
2021/12/06 03:27:32;;;;;;;0.85;0.65;;;;;;;;;;5082941;28;20032;-78
2021/12/06 03:30:19;;;;;;;1.17;0.65;;;;;;;;;;5087883;28;20051;-78
2021/12/06 03:33:06;;;;;;;0.60;0.40;;;;;;;;;;5089355;28;20038;-77
2021/12/06 03:35:52;;;;;;;1.02;0.60;;;;;;;;;;5075800;28;20024;-77
2021/12/06 03:38:39;;;;;;;0.68;0.50;;;;;;;;;;5089980;28;20434;-77
2021/12/06 03:41:27;;;;;;;0.75;0.50;;;;;;;;;;5087706;28;20031;-77
2021/12/06 03:44:14;;;;;;;1.33;0.60;;;;;;;;;;5090194;28;20028;-77
2021/12/06 03:47:04;;;;;;;1.23;0.60;;;;;;;;;;5084812;28;20036;-77
2021/12/06 03:49:51;;;;;;;0.90;0.60;;;;;;;;;;5085759;28;20036;-78
2021/12/06 03:52:38;;;;;;;0.60;0.50;;;;;;;;;;5087453;28;20032;-78
2021/12/06 03:55:25;;;;;;;1.52;0.47;;;;;;;;;;5086768;28;20029;-78
2021/12/06 03:58:12;;;;;;;1.00;0.70;;;;;;;;;;5086713;28;20052;-78
2021/12/06 04:01:00;;;;;;;1.33;0.57;;;;;;;;;;5086608;28;20039;-79
2021/12/06 04:03:47;;;;;;;1.30;0.60;;;;;;;;;;5078023;28;20028;-78
2021/12/06 04:06:35;;;;;;;0.52;0.40;;;;;;;;;;5088671;28;20472;-79
2021/12/06 04:09:21;;;;;;;0.77;0.50;;;;;;;;;;5091283;28;20028;-80
2021/12/06 04:12:09;;;;;;;0.43;0.43;;;;;;;;;;5092553;28;20040;-78
2021/12/06 04:14:57;;;;;;;1.20;0.70;;;;;;;;;;5088079;28;20038;-78
2021/12/06 04:17:44;;;;;;;0.60;0.50;;;;;;;;;;5083623;28;20042;-78
2021/12/06 04:20:30;;;;;;;0.90;0.52;;;;;;;;;;5088726;28;20047;-77
2021/12/06 04:23:17;;;;;;;1.67;0.60;;;;;;;;;;5086769;28;20038;-77
2021/12/06 04:26:06;;;;;;;0.73;0.50;;;;;;;;;;5085806;28;20024;-77
2021/12/06 04:28:59;;;;;;;0.98;0.50;;;;;;;;;;5088588;28;20040;-77
2021/12/06 04:31:48;;;;;;;0.85;0.50;;;;;;;;;;5088026;28;20044;-78
2021/12/06 04:34:35;;;;;;;1.02;0.70;;;;;;;;;;5074437;28;20032;-77
2021/12/06 04:37:22;;;;;;;1.52;0.50;;;;;;;;;;5075859;28;20234;-77
2021/12/06 04:40:10;;;;;;;3.47;0.77;;;;;;;;;;5090038;28;20036;-77
2021/12/06 04:42:57;;;;;;;0.82;0.50;;;;;;;;;;5083410;28;20030;-78
2021/12/06 04:45:44;;;;;;;0.73;0.45;;;;;;;;;;5100399;28;20119;-76
2021/12/06 04:48:31;;;;;;;0.73;0.50;;;;;;;;;;5080419;28;20039;-77
2021/12/06 04:51:18;;;;;;;0.80;0.60;;;;;;;;;;5093204;28;20024;-77
2021/12/06 04:54:05;;;;;;;1.40;0.70;;;;;;;;;;5092455;28;20115;-77
2021/12/06 04:56:57;;;;;;;0.80;0.40;;;;;;;;;;5104875;28;20031;-77
2021/12/06 04:59:46;;;;;;;0.82;0.50;;;;;;;;;;5106866;28;20023;-77
2021/12/06 05:02:35;;;;;;;0.85;0.60;;;;;;;;;;5107299;28;20027;-77
2021/12/06 05:05:24;;;;;;;1.33;0.70;;;;;;;;;;5106351;28;20032;-77
2021/12/06 05:08:14;;;;;;;0.93;0.60;;;;;;;;;;5108450;28;21780;-79
2021/12/06 05:11:01;;;;;;;0.73;0.55;;;;;;;;;;5094353;28;20032;-78
2021/12/06 05:13:48;;;;;;;0.68;0.40;;;;;;;;;;5108615;28;20889;-78
2021/12/06 05:16:36;;;;;;;0.90;0.60;;;;;;;;;;5091779;28;20039;-77
2021/12/06 05:19:23;;;;;;;1.13;0.60;;;;;;;;;;5104808;28;20048;-77
2021/12/06 05:22:09;;;;;;;0.63;0.60;;;;;;;;;;5101659;28;20032;-77
2021/12/06 05:24:56;;;;;;;1.48;0.60;;;;;;;;;;5091403;28;20043;-78
2021/12/06 05:27:43;;;;;;;0.55;0.50;;;;;;;;;;5074100;28;20028;-78
2021/12/06 05:30:31;;;;;;;0.68;0.50;;;;;;;;;;5073852;28;20423;-78
2021/12/06 05:33:28;;;;;;;1.27;0.50;;;;;;;;;;5086399;28;20051;-79
2021/12/06 05:36:15;;;;;;;1.60;0.77;;;;;;;;;;5089339;28;20023;-78
2021/12/06 05:39:03;;;;;;;1.10;0.70;;;;;;;;;;5085155;28;20052;-78
2021/12/06 05:41:50;;;;;;;1.20;0.70;;;;;;;;;;5084564;28;20020;-77
2021/12/06 05:44:37;;;;;;;1.75;0.80;;;;;;;;;;5079454;28;20031;-78
2021/12/06 05:47:23;;;;;;;1.02;0.93;;;;;;;;;;5084922;28;20495;-78
2021/12/06 05:50:11;;;;;;;1.02;0.63;;;;;;;;;;5079672;28;20036;-78
2021/12/06 05:52:58;;;;;;;0.70;0.55;;;;;;;;;;5069311;28;20039;-77
2021/12/06 05:55:45;;;;;;;1.13;0.50;;;;;;;;;;5087761;28;20499;-77
2021/12/06 05:58:32;;;;;;;0.70;0.60;;;;;;;;;;5086072;28;20035;-78
2021/12/06 06:01:19;;;;;;;1.05;0.63;;;;;;;;;;5086851;28;20032;-78
2021/12/06 06:04:05;;;;;;;0.63;0.45;;;;;;;;;;5085772;28;20051;-78
2021/12/06 06:06:52;;;;;;;0.77;0.60;;;;;;;;;;5059667;28;20498;-77
2021/12/06 06:09:39;;;;;;;1.73;0.70;;;;;;;;;;5083912;28;20032;-78
2021/12/06 06:12:26;;;;;;;1.05;0.75;;;;;;;;;;5079893;28;20046;-78
2021/12/06 06:15:13;;;;;;;0.98;0.68;;;;;;;;;;5088235;28;20035;-78
2021/12/06 06:18:00;;;;;;;0.88;0.60;;;;;;;;;;5088629;28;20043;-78
2021/12/06 06:20:49;;;;;;;1.20;0.60;;;;;;;;;;5080788;28;20029;-77
2021/12/06 06:23:36;;;;;;;0.70;0.55;;;;;;;;;;5088294;28;20028;-78
2021/12/06 06:26:23;;;;;;;1.17;0.60;;;;;;;;;;5084415;28;20028;-78
2021/12/06 06:29:10;;;;;;;1.00;0.70;;;;;;;;;;5086677;28;20043;-78
2021/12/06 06:31:56;;;;;;;1.25;0.60;;;;;;;;;;5073249;28;20521;-82
2021/12/06 06:34:43;;;;;;;1.20;0.63;;;;;;;;;;5090087;28;20039;-78
2021/12/06 06:37:30;;;;;;;0.95;0.60;;;;;;;;;;5067114;28;20030;-79
2021/12/06 06:40:17;;;;;;;1.38;0.60;;;;;;;;;;5086088;28;20372;-77
2021/12/06 06:43:04;;;;;;;0.98;0.63;;;;;;;;;;5072416;28;20509;-79
2021/12/06 06:45:50;;;;;;;1.13;0.70;;;;;;;;;;5086547;28;20080;-78
2021/12/06 06:48:37;;;;;;;0.85;0.50;;;;;;;;;;5088018;28;20020;-78
2021/12/06 06:51:25;;;;;;;1.48;0.70;;;;;;;;;;5089358;28;20024;-79
2021/12/06 06:54:11;;;;;;;1.08;0.70;;;;;;;;;;5088503;28;20028;-81
2021/12/06 06:56:58;;;;;;;0.93;0.60;;;;;;;;;;5083265;28;20129;-83
2021/12/06 06:59:45;;;;;;;1.23;0.60;;;;;;;;;;5089006;28;20091;-81
2021/12/06 07:02:32;;;;;;;0.90;0.70;;;;;;;;;;5090004;28;20023;-82
2021/12/06 07:05:19;;;;;;;1.33;0.82;;;;;;;;;;5086985;28;20402;-82
2021/12/06 07:08:06;;;;;;;0.90;0.50;;;;;;;;;;5072525;28;20032;-82
2021/12/06 07:10:54;;;;;;;0.98;0.60;;;;;;;;;;5080628;28;20503;-83
2021/12/06 07:13:42;;;;;;;0.63;0.52;;;;;;;;;;5091650;28;20032;-82
2021/12/06 07:16:29;;;;;;;1.02;0.50;;;;;;;;;;5070926;28;20491;-83
2021/12/06 07:19:16;;;;;;;0.63;0.50;;;;;;;;;;5089632;28;20040;-81
2021/12/06 07:22:03;;;;;;;0.85;0.60;;;;;;;;;;5089667;28;20130;-80
2021/12/06 07:24:50;;;;;;;1.25;0.70;;;;;;;;;;5088394;28;20027;-80
2021/12/06 07:27:37;;;;;;;1.65;0.60;;;;;;;;;;5076880;28;20028;-79
2021/12/06 07:30:24;;;;;;;1.00;0.70;;;;;;;;;;5092139;28;20484;-81
2021/12/06 07:33:10;;;;;;;1.40;0.50;;;;;;;;;;5091044;28;20024;-81
2021/12/06 07:35:57;;;;;;;0.65;0.50;;;;;;;;;;5090497;28;20028;-80
2021/12/06 07:38:44;;;;;;;1.55;0.57;;;;;;;;;;5088194;28;20043;-81
2021/12/06 07:41:31;;;;;;;1.17;0.60;;;;;;;;;;5086488;28;20427;-81
2021/12/06 07:44:17;;;;;;;2.78;0.80;;;;;;;;;;5085055;28;20025;-81
2021/12/06 07:47:04;;;;;;;1.77;0.80;;;;;;;;;;5089761;28;20039;-82
2021/12/06 07:49:51;;;;;;;1.48;0.60;;;;;;;;;;5087156;28;20024;-81
2021/12/06 07:52:38;;;;;;;1.40;0.82;;;;;;;;;;5083049;28;20484;-81
2021/12/06 07:55:30;;;;;;;1.60;0.70;;;;;;;;;;5086862;28;20498;-81
2021/12/06 07:58:16;;;;;;;1.70;0.50;;;;;;;;;;5090345;28;20035;-81
2021/12/06 08:01:03;;;;;;;0.95;0.60;;;;;;;;;;5088502;28;20036;-81
2021/12/06 08:03:50;;;;;;;0.52;0.50;;;;;;;;;;5075740;28;20475;-81
2021/12/06 08:06:37;;;;;;;1.67;0.50;;;;;;;;;;5086394;28;20030;-80
2021/12/06 08:09:24;;;;;;;0.60;0.50;;;;;;;;;;5090780;28;20016;-81
2021/12/06 08:12:11;;;;;;;1.60;0.80;;;;;;;;;;5083727;28;20406;-81
2021/12/06 08:14:57;;;;;;;1.10;0.75;;;;;;;;;;5088847;28;20042;-81
2021/12/06 08:17:45;;;;;;;1.75;0.75;;;;;;;;;;5086043;28;20483;-81
2021/12/06 08:20:33;;;;;;;0.93;0.60;;;;;;;;;;5088785;28;20032;-81
2021/12/06 08:23:20;;;;;;;1.23;0.60;;;;;;;;;;5089336;28;20510;-81
2021/12/06 08:26:08;;;;;;;0.80;0.50;;;;;;;;;;5089881;28;20032;-81
2021/12/06 08:28:56;;;;;;;0.82;0.60;;;;;;;;;;5076735;28;20028;-80
2021/12/06 08:31:44;;;;;;;0.63;0.50;;;;;;;;;;5087367;28;20409;-80
2021/12/06 08:34:31;;;;;;;0.73;0.47;;;;;;;;;;5086314;28;20032;-80
2021/12/06 08:37:18;;;;;;;1.65;0.63;;;;;;;;;;5091207;28;20399;-80
2021/12/06 08:40:05;;;;;;;0.90;0.50;;;;;;;;;;5079839;28;20037;-81
2021/12/06 08:42:52;;;;;;;1.77;0.60;;;;;;;;;;5087632;28;20024;-80
2021/12/06 08:45:39;;;;;;;0.65;0.60;;;;;;;;;;5088417;28;20037;-81
2021/12/06 08:48:27;;;;;;;0.50;0.50;;;;;;;;;;5092034;28;20028;-79
2021/12/06 08:51:34;;;;;;;2.47;0.90;;;;;;;;;;5089101;28;20032;-81
2021/12/06 08:54:22;;;;;;;0.70;0.50;;;;;;;;;;5087486;28;20028;-82
2021/12/06 08:57:09;;;;;;;1.00;0.60;;;;;;;;;;5087498;28;20527;-82
2021/12/06 08:59:56;;;;;;;0.75;0.43;;;;;;;;;;5074552;28;20032;-84
2021/12/06 09:02:43;;;;;;;1.15;0.50;;;;;;;;;;5084523;28;20043;-81
2021/12/06 09:05:32;;;;;;;0.90;0.60;;;;;;;;;;5085511;28;20028;-81
2021/12/06 09:08:18;;;;;;;0.63;0.50;;;;;;;;;;5089861;28;20050;-81
2021/12/06 09:11:08;;;;;;;1.73;0.60;;;;;;;;;;5085961;28;20039;-80
2021/12/06 09:13:54;;;;;;;1.05;0.70;;;;;;;;;;5087352;28;20032;-81
2021/12/06 09:16:42;;;;;;;0.82;0.50;;;;;;;;;;5090868;28;20034;-80
2021/12/06 09:19:29;;;;;;;1.00;0.60;;;;;;;;;;5089658;28;20040;-80
2021/12/06 09:22:16;;;;;;;1.05;0.70;;;;;;;;;;5073325;28;20028;-81
2021/12/06 09:25:03;;;;;;;0.85;0.60;;;;;;;;;;5088468;28;20039;-81
2021/12/06 09:27:53;;;;;;;0.98;0.60;;;;;;;;;;5078848;28;20056;-81
2021/12/06 09:30:40;;;;;;;2.83;0.75;;;;;;;;;;5086960;28;20434;-80
2021/12/06 09:33:27;;;;;;;1.73;0.52;;;;;;;;;;5076318;28;20040;-81
2021/12/06 09:36:15;;;;;;;1.08;0.70;;;;;;;;;;5090438;28;20509;-81
2021/12/06 09:39:02;;;;;;;1.77;0.70;;;;;;;;;;5074428;28;20039;-80
2021/12/06 09:41:49;;;;;;;0.68;0.50;;;;;;;;;;5075609;28;20046;-81
2021/12/06 09:44:35;;;;;;;0.88;0.68;;;;;;;;;;5081098;28;20382;-82
2021/12/06 09:47:22;;;;;;;1.08;0.63;;;;;;;;;;5088088;28;20033;-81
2021/12/06 09:50:09;;;;;;;0.90;0.55;;;;;;;;;;5076580;28;20028;-81
2021/12/06 09:52:59;;;;;;;1.00;0.65;;;;;;;;;;5082679;28;20044;-82
2021/12/06 09:55:47;;;;;;;0.73;0.52;;;;;;;;;;5073362;28;20055;-80
2021/12/06 09:58:34;;;;;;;1.42;0.70;;;;;;;;;;5081183;28;20035;-81
2021/12/06 10:01:26;;;;;;;1.02;0.63;;;;;;;;;;5083107;28;20043;-80
2021/12/06 10:04:14;;;;;;;;;;;;;;;;;;5085346;28;20028;-81
2021/12/06 10:07:02;;;;;;;0.65;0.60;;;;;;;;;;5084435;28;19904;-81
2021/12/06 10:09:51;;;;;;;1.20;0.68;;;;;;;;;;5075515;28;20017;-81
2021/12/06 10:12:37;;;;;;;0.82;0.50;;;;;;;;;;5090215;28;20046;-81
2021/12/06 10:15:26;;;;;;;1.13;0.65;;;;;;;;;;5087765;28;20521;-81
2021/12/06 10:18:16;;;;;;;0.98;0.57;;;;;;;;;;5085184;28;20028;-81
2021/12/06 10:21:04;;;;;;;0.85;0.52;;;;;;;;;;5083499;28;20421;-80
2021/12/06 10:23:52;;;;;;;1.33;0.60;;;;;;;;;;5079352;28;20760;-81
2021/12/06 10:26:38;;;;;;;0.93;0.70;;;;;;;;;;5085161;28;20039;-81
2021/12/06 10:29:32;;;;;;;1.45;0.70;;;;;;;;;;5089860;28;20394;-81
2021/12/06 10:32:27;;;;;;;0.98;0.60;;;;;;;;;;5075320;28;20051;-80
2021/12/06 10:35:15;;;;;;;0.82;0.55;;;;;;;;;;5078621;28;20028;-81
2021/12/06 10:38:02;;;;;;;0.80;0.60;;;;;;;;;;5081798;28;20051;-81
2021/12/06 10:40:49;;;;;;;0.60;0.50;;;;;;;;;;5069641;28;20059;-80
2021/12/06 10:43:36;;;;;;;1.45;0.80;;;;;;;;;;5092585;28;20762;-81
2021/12/06 10:46:23;;;;;;;1.02;0.60;;;;;;;;;;5076278;28;20377;-82
2021/12/06 10:49:13;;;;;;;0.57;0.47;;;;;;;;;;5083249;28;20035;-82
2021/12/06 10:52:00;;;;;;;1.13;0.60;;;;;;;;;;5090319;28;20028;-80
2021/12/06 10:54:52;;;;;;;1.05;0.50;;;;;;;;;;5081436;28;20051;-80
2021/12/06 10:57:52;;;;;;;0.88;0.60;;;;;;;;;;5091813;28;20016;-80
2021/12/06 11:00:56;;;;;;;0.70;0.50;;;;;;;;;;5082121;28;20055;-81
2021/12/06 11:03:45;;;;;;;0.50;0.50;;;;;;;;;;5088449;28;20104;-81
2021/12/06 11:06:44;;;;;;;0.88;0.60;;;;;;;;;;5072984;28;20024;-81
2021/12/06 11:09:31;;;;;;;1.15;0.70;;;;;;;;;;5085253;28;20502;-82
2021/12/06 11:12:20;;;;;;;1.08;0.60;;;;;;;;;;5093051;28;20032;-81
2021/12/06 11:15:13;;;;;;;0.80;0.60;;;;;;;;;;5092854;28;20050;-81
2021/12/06 11:18:01;;;;;;;0.80;0.63;;;;;;;;;;5083802;28;20035;-81
2021/12/06 11:20:48;;;;;;;1.92;0.73;;;;;;;;;;5088906;28;20032;-81
2021/12/06 11:23:35;;;;;;;1.05;0.60;;;;;;;;;;5069731;28;20634;-83
2021/12/06 11:26:22;;;;;;;1.90;0.90;;;;;;;;;;5091968;28;20450;-82
2021/12/06 11:29:13;;;;;;;1.40;0.60;;;;;;;;;;5093074;28;20036;-83
2021/12/06 11:32:03;;;;;;;1.58;0.60;;;;;;;;;;5090270;28;20399;-83
2021/12/06 11:34:52;;;;;;;2.03;0.65;;;;;;;;;;5071615;28;20044;-83
2021/12/06 11:37:38;;;;;;;2.35;0.70;;;;;;;;;;5087659;28;20039;-83
2021/12/06 11:40:31;;;;;;;1.50;0.80;;;;;;;;;;5089072;28;20399;-83
2021/12/06 11:43:18;;;;;;;1.38;0.40;;;;;;;;;;5087215;28;20475;-84
2021/12/06 11:46:07;;;;;;;1.10;0.65;;;;;;;;;;5090552;28;20032;-84
2021/12/06 11:48:53;;;;;;;1.52;0.68;;;;;;;;;;5092085;28;20035;-83
2021/12/06 11:51:40;;;;;;;0.77;0.50;;;;;;;;;;5055006;28;20039;-83
2021/12/06 11:54:34;;;;;;;1.15;0.63;;;;;;;;;;5077217;28;20031;-83
2021/12/06 11:57:27;;;;;;;1.30;0.60;;;;;;;;;;5077701;28;20035;-83
2021/12/06 12:00:15;;;;;;;1.42;0.75;;;;;;;;;;5082396;28;20036;-83
2021/12/06 12:03:02;;;;;;;1.67;0.60;;;;;;;;;;5091746;28;20020;-84
2021/12/06 12:05:49;;;;;;;0.90;0.50;;;;;;;;;;5072016;28;20036;-83
2021/12/06 12:08:36;;;;;;;1.25;0.80;;;;;;;;;;5088854;28;20039;-83
2021/12/06 12:11:22;;;;;;;1.15;0.47;;;;;;;;;;5090094;28;20039;-80
2021/12/06 12:14:12;;;;;;;1.50;0.80;;;;;;;;;;5088091;28;20028;-79
2021/12/06 12:17:00;;;;;;;1.83;0.60;;;;;;;;;;5088991;28;20056;-79
2021/12/06 12:19:47;;;;;;;1.30;0.80;;;;;;;;;;5085177;28;20038;-80
2021/12/06 12:22:34;;;;;;;1.80;0.60;;;;;;;;;;5090910;28;20024;-80
2021/12/06 12:25:31;;;;;;;1.58;0.80;;;;;;;;;;5085059;28;20402;-80
2021/12/06 12:28:22;;;;;;;1.58;0.70;;;;;;;;;;5090078;28;20057;-82
2021/12/06 12:31:11;;;;;;;1.48;0.85;;;;;;;;;;5094875;28;20044;-80
2021/12/06 12:33:58;;;;;;;1.85;1.15;;;;;;;;;;5094095;28;20028;-80
2021/12/06 12:36:45;;;;;;;3.00;1.20;;;;;;;;;;5084754;28;20032;-79
2021/12/06 12:39:31;;;;;;;2.05;1.20;;;;;;;;;;5072450;28;20048;-80
2021/12/06 12:42:18;;;;;;;1.90;1.17;;;;;;;;;;5074176;28;20038;-80
2021/12/06 12:45:06;;;;;;;2.25;1.20;;;;;;;;;;5091237;28;20036;-80
2021/12/06 12:47:56;;;;;;;1.83;1.20;;;;;;;;;;5074736;28;20044;-80
2021/12/06 12:51:01;;;;;;;1.60;1.08;;;;;;;;;;5086556;28;20071;-79
2021/12/06 12:53:54;;;;;;;4.38;1.00;;;;;;;;;;5089135;28;20042;-80
2021/12/06 12:56:55;;;;;;;3.10;0.93;;;;;;;;;;5087800;28;20038;-81
2021/12/06 12:59:52;;;;;;;2.55;1.08;;;;;;;;;;5092056;28;20192;-80
2021/12/06 13:02:39;;;;;;;1.88;0.95;;;;;;;;;;5091384;28;20032;-81
2021/12/06 13:05:27;;;;;;;2.17;0.60;;;;;;;;;;5090719;28;20149;-80
2021/12/06 13:08:14;;;;;;;1.10;0.65;;;;;;;;;;5092169;28;20412;-80
2021/12/06 13:11:01;;;;;;;2.05;1.08;;;;;;;;;;5092042;28;20674;-80
2021/12/06 13:13:50;;;;;;;2.28;0.80;;;;;;;;;;5086321;28;20407;-81
2021/12/06 13:16:44;;;;;;;1.05;0.70;;;;;;;;;;5089583;28;20020;-80
2021/12/06 13:19:43;;;;;;;2.08;0.70;;;;;;;;;;5085837;28;20044;-80
2021/12/06 13:22:32;;;;;;;0.73;0.60;;;;;;;;;;5088487;28;20404;-80
2021/12/06 13:25:28;;;;;;;2.13;0.70;;;;;;;;;;5071616;28;20034;-80
2021/12/06 13:28:15;;;;;;;1.77;0.52;;;;;;;;;;5092846;28;20394;-80
2021/12/06 13:31:02;;;;;;;2.80;1.10;;;;;;;;;;5090860;28;20849;-80
2021/12/06 13:33:50;;;;;;;1.67;0.70;;;;;;;;;;5092007;28;20073;-89
2021/12/06 13:36:42;;;;;;;0.93;0.60;;;;;;;;;;5077495;28;20047;-81
2021/12/06 13:39:28;;;;;;;;;;;;;;;;;;5100709;28;20044;-82
2021/12/06 13:42:35;;;;;;;1.33;0.70;;;;;;;;;;5098338;28;19904;-82
2021/12/06 13:45:23;;;;;;;1.88;0.73;;;;;;;;;;5080845;28;20028;-82
2021/12/06 13:48:10;;;;;;;3.63;0.60;;;;;;;;;;5092890;28;20028;-82
2021/12/06 13:50:57;;;;;;;2.65;0.80;;;;;;;;;;5089556;28;20036;-82
2021/12/06 13:53:52;;;;;;;1.92;0.63;;;;;;;;;;5076832;28;20421;-83
2021/12/06 13:56:41;;;;;;;2.10;0.65;;;;;;;;;;5094859;28;20024;-82
2021/12/06 13:59:39;;;;;;;1.23;0.70;;;;;;;;;;5093024;28;20036;-82
2021/12/06 14:02:28;;;;;;;2.38;0.68;;;;;;;;;;5089052;28;20054;-83
2021/12/06 14:05:15;;;;;;;2.35;0.77;;;;;;;;;;5086567;28;20024;-82
2021/12/06 14:08:02;;;;;;;1.98;0.70;;;;;;;;;;5089794;28;20125;-82
2021/12/06 14:10:51;;;;;;;1.45;0.35;;;;;;;;;;5086311;28;20520;-83
2021/12/06 14:13:40;;;;;;;4.13;0.80;;;;;;;;;;5088551;28;20024;-83
2021/12/06 14:16:33;;;;;;;1.73;0.68;;;;;;;;;;5086740;28;20031;-82
2021/12/06 14:19:23;;;;;;;1.70;0.50;;;;;;;;;;5087673;28;20042;-82
2021/12/06 14:22:11;;;;;;;1.48;0.65;;;;;;;;;;5084320;28;20523;-82
2021/12/06 14:25:00;;;;;;;2.03;0.65;;;;;;;;;;5094779;28;20028;-82
2021/12/06 14:27:48;;;;;;;3.42;0.60;;;;;;;;;;5071187;28;20080;-82
2021/12/06 14:30:35;;;;;;;1.63;0.55;;;;;;;;;;5068048;28;20322;-82
2021/12/06 14:33:21;;;;;;;1.77;0.80;;;;;;;;;;5088542;28;20157;-83
2021/12/06 14:36:08;;;;;;;3.22;0.82;;;;;;;;;;5090598;28;20043;-82
2021/12/06 14:38:55;;;;;;;2.10;0.60;;;;;;;;;;5082368;28;20031;-82
2021/12/06 14:41:51;;;;;;;3.20;0.80;;;;;;;;;;5095570;28;20507;-82
2021/12/06 14:44:38;;;;;;;2.40;0.60;;;;;;;;;;5092757;28;20024;-81
2021/12/06 14:47:24;;;;;;;2.00;0.60;;;;;;;;;;5091911;28;20032;-82
2021/12/06 14:50:20;;;;;;;1.00;0.50;;;;;;;;;;5092032;28;20028;-82
2021/12/06 14:53:20;;;;;;;3.28;0.70;;;;;;;;;;5088340;28;20024;-82
2021/12/06 14:56:43;;;;;;;0.75;0.50;;;;;;;;;;5084810;28;20138;-82
2021/12/06 14:59:20;;;;;;;1.05;0.40;;;;;;;;;;5089176;28;20024;-82
2021/12/06 15:02:07;;;;;;;1.80;0.82;;;;;;;;;;5091232;28;20407;-82
2021/12/06 15:05:02;;;;;;;3.80;0.70;;;;;;;;;;5091125;28;20039;-83
2021/12/06 15:07:49;;;;;;;1.75;0.70;;;;;;;;;;5090158;28;20097;-83
2021/12/06 15:10:43;;;;;;;1.02;0.60;;;;;;;;;;5089134;28;20028;-83
2021/12/06 15:13:32;;;;;;;0.95;0.60;;;;;;;;;;5091617;28;20028;-83
2021/12/06 15:16:22;;;;;;;1.50;0.38;;;;;;;;;;5078459;28;20028;-83
2021/12/06 15:19:10;;;;;;;2.03;0.50;;;;;;;;;;5087450;28;20036;-82
2021/12/06 15:21:59;;;;;;;1.92;0.43;;;;;;;;;;5090338;28;20054;-82
2021/12/06 15:24:52;;;;;;;1.98;0.70;;;;;;;;;;5083416;28;20510;-82
2021/12/06 15:27:40;;;;;;;1.05;0.60;;;;;;;;;;5069713;28;20044;-81
2021/12/06 15:30:31;;;;;;;2.65;0.65;;;;;;;;;;5089754;28;20048;-80
2021/12/06 15:33:18;;;;;;;2.75;0.60;;;;;;;;;;5090524;28;20036;-75
2021/12/06 15:36:07;;;;;;;2.53;0.70;;;;;;;;;;5088832;28;20024;-81
2021/12/06 15:39:00;;;;;;;0.95;0.60;;;;;;;;;;5088485;28;20518;-82
2021/12/06 15:41:49;;;;;;;2.17;1.00;;;;;;;;;;5072250;28;20050;-81
2021/12/06 15:44:39;;;;;;;1.98;0.63;;;;;;;;;;5074074;28;20026;-83
2021/12/06 15:47:32;;;;;;;2.30;0.70;;;;;;;;;;5090503;28;20036;-81
2021/12/06 15:50:22;;;;;;;1.88;0.60;;;;;;;;;;5086605;28;20032;-81
2021/12/06 15:53:14;;;;;;;1.73;0.70;;;;;;;;;;5065303;28;20036;-83
2021/12/06 15:56:00;;;;;;;2.55;0.80;;;;;;;;;;5090812;28;20032;-81
2021/12/06 15:58:48;;;;;;;0.93;0.50;;;;;;;;;;5095986;28;20048;-83
2021/12/06 16:01:41;;;;;;;2.95;0.75;;;;;;;;;;5093944;28;20051;-81
2021/12/06 16:04:28;;;;;;;1.20;0.65;;;;;;;;;;5092518;28;20043;-87
2021/12/06 16:07:44;;;;;;;1.70;0.80;;;;;;;;;;5100218;28;20039;-83
2021/12/06 16:10:34;;;;;;;3.25;0.80;;;;;;;;;;5098134;28;20061;-84
2021/12/06 16:13:23;;;;;;;0.90;0.47;;;;;;;;;;5102407;28;20024;-82
2021/12/06 16:16:11;;;;;;;2.90;0.90;;;;;;;;;;5104156;28;20030;-82
2021/12/06 16:18:58;;;;;;;2.55;1.00;;;;;;;;;;5105196;28;20040;-82
2021/12/06 16:21:46;;;;;;;2.35;0.80;;;;;;;;;;5102975;28;20057;-82
2021/12/06 16:24:33;;;;;;;7.72;2.38;;;;;;;;;;5106742;28;20034;-82
2021/12/06 16:27:19;;;;;;;13.38;2.25;;;;;;;;;;5103999;28;20036;-86
2021/12/06 16:30:07;;;;;;;15.25;3.33;;;;;;;;;;5106752;28;20024;-82
2021/12/06 16:32:55;;;;;;;18.70;4.50;;;;;;;;;;5105821;28;20043;-81
2021/12/06 16:35:42;;;;;;;26.73;5.65;;;;;;;;;;5084396;28;20032;-81
2021/12/06 16:38:34;;;;;;;30.30;6.65;;;;;;;;;;5096234;28;20039;-82
2021/12/06 16:41:22;;;;;;;30.35;6.75;;;;;;;;;;5093831;28;20040;-81
2021/12/06 16:44:18;;;;;;;28.95;7.07;;;;;;;;;;5097184;28;20774;-81
2021/12/06 16:47:11;;;;;;;36.55;7.45;;;;;;;;;;5095255;28;20028;-81
2021/12/06 16:50:04;;;;;;;41.83;8.70;;;;;;;;;;5092136;28;20487;-88
2021/12/06 16:52:54;;;;;;;38.75;8.93;;;;;;;;;;5082197;28;20631;-83
2021/12/06 16:55:43;;;;;;;41.75;8.82;;;;;;;;;;5086242;28;20533;-82
2021/12/06 16:58:36;;;;;;;39.30;9.70;;;;;;;;;;5085105;28;20020;-83
2021/12/06 17:01:24;;;;;;;47.83;10.18;;;;;;;;;;5083413;28;20051;-84
2021/12/06 17:04:13;;;;;;;46.08;10.73;;;;;;;;;;5068937;28;20031;-83
2021/12/06 17:06:59;;;;;;;47.70;10.85;;;;;;;;;;5083948;28;20040;-84